createdAt,value
2022-09-07T00:00:43.925Z,101270.94
2022-09-07T00:03:11.216Z,101271.63
2022-09-07T00:05:43.173Z,101270.75
2022-09-07T00:08:10.747Z,101264.69
2022-09-07T00:10:38.608Z,101272.63
2022-09-07T00:13:07.440Z,101275.63
2022-09-07T00:15:39.424Z,101272.59
2022-09-07T00:18:06.772Z,101275.94
2022-09-07T00:20:33.987Z,101274.41
2022-09-07T00:23:01.251Z,101278.13
2022-09-07T00:25:31.801Z,101271.03
2022-09-07T00:27:59.455Z,101284.69
2022-09-07T00:30:26.867Z,101268.34
2022-09-07T00:32:54.110Z,101272.41
2022-09-07T00:35:21.393Z,101271.06
2022-09-07T00:37:48.723Z,101270.75
2022-09-07T00:40:16.142Z,101267.72
2022-09-07T00:42:43.388Z,101265.69
2022-09-07T00:45:17.823Z,101258.59
2022-09-07T00:47:55.586Z,101275.00
2022-09-07T00:50:31.605Z,101278.56
2022-09-07T00:53:15.913Z,101282.59
2022-09-07T00:55:46.096Z,101278.38
2022-09-07T00:58:13.813Z,101270.75
2022-09-07T01:00:43.435Z,101276.50
2022-09-07T01:03:11.408Z,101274.44
2022-09-07T01:05:50.688Z,101276.81
2022-09-07T01:08:18.432Z,101274.09
2022-09-07T01:10:46.851Z,101283.97
2022-09-07T01:13:15.154Z,101283.13
2022-09-07T01:16:24.034Z,101277.69
2022-09-07T01:19:24.411Z,101279.53
2022-09-07T01:22:06.752Z,101274.13
2022-09-07T01:25:03.020Z,101274.94
2022-09-07T01:28:08.782Z,101283.84
2022-09-07T01:30:38.544Z,101282.16
2022-09-07T01:33:05.733Z,101282.69
2022-09-07T01:35:35.797Z,101291.13
2022-09-07T01:38:08.068Z,101299.50
2022-09-07T01:41:00.149Z,101286.72
2022-09-07T01:43:52.364Z,101290.91
2022-09-07T01:46:31.942Z,101285.28
2022-09-07T01:49:06.282Z,101288.31
2022-09-07T01:51:37.025Z,101293.47
2022-09-07T01:54:14.068Z,101288.25
2022-09-07T01:56:46.744Z,101278.47
2022-09-07T01:59:29.028Z,101280.31
2022-09-07T02:02:04.177Z,101278.78
2022-09-07T02:04:37.675Z,101281.97
2022-09-07T02:07:04.887Z,101278.78
2022-09-07T02:09:47.104Z,101278.47
2022-09-07T02:12:22.266Z,101273.88
2022-09-07T02:14:57.665Z,101267.94
2022-09-07T02:17:48.971Z,101260.88
2022-09-07T02:20:21.123Z,101266.03
2022-09-07T02:22:54.210Z,101261.44
2022-09-07T02:25:28.936Z,101268.69
2022-09-07T02:28:07.881Z,101275.38
2022-09-07T02:30:35.194Z,101263.97
2022-09-07T02:33:02.495Z,101261.81
2022-09-07T02:35:30.026Z,101250.66
2022-09-07T02:38:00.668Z,101250.28
2022-09-07T02:40:27.977Z,101246.59
2022-09-07T02:42:57.117Z,101246.91
2022-09-07T02:45:24.395Z,101243.00
2022-09-07T02:48:22.831Z,101251.69
2022-09-07T02:51:11.274Z,101252.59
2022-09-07T02:54:02.592Z,101252.00
2022-09-07T02:56:54.389Z,101249.69
2022-09-07T02:59:45.816Z,101254.09
2022-09-07T03:02:39.630Z,101246.78
2022-09-07T03:05:29.147Z,101250.31
2022-09-07T03:08:04.195Z,101254.47
2022-09-07T03:10:32.158Z,101250.09
2022-09-07T03:12:59.436Z,101246.69
2022-09-07T03:15:28.094Z,101239.59
2022-09-07T03:17:55.406Z,101247.00
2022-09-07T03:20:23.476Z,101233.91
2022-09-07T03:22:52.361Z,101239.00
2022-09-07T03:25:20.010Z,101231.78
2022-09-07T03:27:47.349Z,101235.84
2022-09-07T03:30:14.786Z,101235.47
2022-09-07T03:32:42.112Z,101235.91
2022-09-07T03:35:15.527Z,101232.00
2022-09-07T03:37:42.999Z,101223.94
2022-09-07T03:40:12.203Z,101237.69
2022-09-07T03:42:40.225Z,101244.75
2022-09-07T03:45:08.184Z,101242.59
2022-09-07T03:47:36.941Z,101247.84
2022-09-07T03:50:05.646Z,101235.75
2022-09-07T03:52:34.445Z,101239.88
2022-09-07T03:55:01.801Z,101242.13
2022-09-07T03:57:29.073Z,101250.47
2022-09-07T03:59:56.296Z,101248.50
2022-09-07T04:02:23.645Z,101264.09
2022-09-07T04:04:50.889Z,101268.75
2022-09-07T04:07:18.148Z,101266.91
2022-09-07T04:09:45.411Z,101270.03
2022-09-07T04:12:12.640Z,101274.59
2022-09-07T04:14:39.971Z,101281.13
2022-09-07T04:17:07.289Z,101278.75
2022-09-07T04:19:34.657Z,101287.38
2022-09-07T04:22:01.964Z,101300.69
2022-09-07T04:24:29.433Z,101302.78
2022-09-07T04:26:56.664Z,101307.03
2022-09-07T04:29:24.012Z,101291.56
2022-09-07T04:31:51.238Z,101300.34
2022-09-07T04:34:18.561Z,101302.06
2022-09-07T04:36:45.845Z,101292.56
2022-09-07T04:39:13.132Z,101300.66
2022-09-07T04:41:40.383Z,101300.94
2022-09-07T04:44:07.712Z,101304.78
2022-09-07T04:46:36.730Z,101300.38
2022-09-07T04:49:06.984Z,101297.84
2022-09-07T04:51:35.743Z,101303.53
2022-09-07T04:54:04.273Z,101303.22
2022-09-07T04:56:32.805Z,101300.84
2022-09-07T04:59:01.727Z,101301.13
2022-09-07T05:01:30.085Z,101299.59
2022-09-07T05:04:00.576Z,101312.91
2022-09-07T05:06:28.523Z,101310.06
2022-09-07T05:08:56.613Z,101309.75
2022-09-07T05:11:28.650Z,101313.84
2022-09-07T05:14:01.235Z,101319.53
2022-09-07T05:16:29.776Z,101322.22
2022-09-07T05:19:01.995Z,101318.53
2022-09-07T05:21:32.071Z,101321.94
2022-09-07T05:24:00.655Z,101319.78
2022-09-07T05:26:30.191Z,101306.97
2022-09-07T05:31:49.939Z,101315.81
2022-09-07T05:34:33.178Z,101318.75
2022-09-07T05:37:01.399Z,101322.50
2022-09-07T05:39:29.255Z,101322.50
2022-09-07T05:41:56.838Z,101324.06
2022-09-07T05:47:11.622Z,101314.50
2022-09-07T05:49:39.031Z,101327.84
2022-09-07T05:52:06.853Z,101328.03
2022-09-07T05:54:34.195Z,101335.47
2022-09-07T05:57:03.552Z,101337.47
2022-09-07T05:59:30.948Z,101334.78
2022-09-07T06:01:58.329Z,101336.94
2022-09-07T06:04:25.904Z,101327.34
2022-09-07T06:12:28.489Z,101344.63
2022-09-07T06:14:55.797Z,101342.88
2022-09-07T06:17:23.112Z,101347.22
2022-09-07T06:19:50.379Z,101350.13
2022-09-07T06:22:17.643Z,101347.13
2022-09-07T06:24:44.899Z,101343.38
2022-09-07T06:27:12.181Z,101339.75
2022-09-07T06:29:39.404Z,101332.75
2022-09-07T06:34:53.970Z,101335.13
2022-09-07T06:37:21.274Z,101343.91
2022-09-07T06:39:49.404Z,101346.69
2022-09-07T06:42:16.845Z,101351.03
2022-09-07T06:44:44.888Z,101356.97
2022-09-07T06:47:12.165Z,101362.31
2022-09-07T06:49:39.460Z,101354.75
2022-09-07T06:52:06.795Z,101353.69
2022-09-07T06:57:21.516Z,101354.47
2022-09-07T06:59:48.772Z,101359.75
2022-09-07T07:02:16.028Z,101362.31
2022-09-07T07:04:43.302Z,101368.03
2022-09-07T07:07:14.743Z,101369.78
2022-09-07T07:09:42.127Z,101385.34
2022-09-07T07:12:10.609Z,101380.28
2022-09-07T07:14:43.979Z,101380.09
2022-09-07T07:17:13.192Z,101374.88
2022-09-07T07:19:40.457Z,101383.63
2022-09-07T07:22:36.008Z,101382.16
2022-09-07T07:24:54.961Z,101379.81
2022-09-07T07:27:22.522Z,101372.94
2022-09-07T07:29:49.986Z,101362.47
2022-09-07T07:32:17.239Z,101359.09
2022-09-07T07:34:44.527Z,101354.38
2022-09-07T07:37:11.772Z,101367.53
2022-09-07T07:42:26.656Z,101377.22
2022-09-07T07:47:59.668Z,101389.56
2022-09-07T07:50:34.632Z,101385.81
2022-09-07T07:55:49.469Z,101405.75
2022-09-07T07:58:17.201Z,101406.13
2022-09-07T08:00:54.296Z,101393.94
2022-09-07T08:03:24.605Z,101397.19
2022-09-07T08:05:52.174Z,101408.69
2022-09-07T08:08:19.753Z,101408.53
2022-09-07T08:10:47.743Z,101402.09
2022-09-07T08:13:19.112Z,101400.56
2022-09-07T08:15:48.463Z,101404.47
2022-09-07T08:18:17.321Z,101417.50
2022-09-07T08:20:44.755Z,101417.97
2022-09-07T08:23:12.150Z,101422.34
2022-09-07T08:25:39.410Z,101411.50
2022-09-07T08:28:06.814Z,101408.25
2022-09-07T08:30:34.023Z,101413.47
2022-09-07T08:33:08.678Z,101414.50
2022-09-07T08:35:44.177Z,101416.38
2022-09-07T08:38:12.872Z,101421.59
2022-09-07T08:40:40.135Z,101410.44
2022-09-07T08:43:31.664Z,101416.91
2022-09-07T08:46:29.596Z,101423.34
2022-09-07T08:48:59.681Z,101418.41
2022-09-07T08:51:42.062Z,101414.63
2022-09-07T08:54:13.775Z,101414.13
2022-09-07T08:57:20.653Z,101411.28
2022-09-07T08:59:43.656Z,101419.00
2022-09-07T09:02:31.920Z,101416.66
2022-09-07T09:05:17.703Z,101411.69
2022-09-07T09:07:59.779Z,101418.19
2022-09-07T09:10:48.210Z,101421.13
2022-09-07T09:13:15.375Z,101423.72
2022-09-07T09:15:52.996Z,101412.16
2022-09-07T09:18:32.399Z,101405.88
2022-09-07T09:21:01.358Z,101406.63
2022-09-07T09:23:36.748Z,101405.00
2022-09-07T09:26:25.691Z,101395.72
2022-09-07T09:28:53.575Z,101396.41
2022-09-07T09:31:28.157Z,101397.16
2022-09-07T09:34:13.999Z,101385.97
2022-09-07T09:36:46.151Z,101379.19
2022-09-07T09:39:27.989Z,101380.41
2022-09-07T09:42:14.520Z,101386.84
2022-09-07T09:44:45.785Z,101373.00
2022-09-07T09:47:33.099Z,101360.69
2022-09-07T09:52:29.302Z,101364.16
2022-09-07T09:53:05.434Z,101357.84
2022-09-07T09:55:37.037Z,101356.34
2022-09-07T10:01:24.005Z,101343.53
2022-09-07T10:06:22.047Z,101343.19
2022-09-07T10:09:00.144Z,101335.31
2022-09-07T10:14:44.256Z,101338.38
2022-09-07T10:17:35.638Z,101341.38
2022-09-07T10:20:18.859Z,101342.03
2022-09-07T10:22:58.383Z,101346.16
2022-09-07T10:25:37.696Z,101343.44
2022-09-07T10:28:14.370Z,101333.13
2022-09-07T10:30:47.618Z,101335.56
2022-09-07T10:33:33.507Z,101325.06
2022-09-07T10:36:25.640Z,101331.03
2022-09-07T10:39:24.957Z,101331.88
2022-09-07T10:42:13.861Z,101327.84
2022-09-07T10:45:11.260Z,101323.25
2022-09-07T10:48:08.072Z,101319.44
2022-09-07T10:50:53.299Z,101304.03
2022-09-07T10:53:43.812Z,101303.97
2022-09-07T10:56:15.382Z,101301.31
2022-09-07T10:59:03.953Z,101301.72
2022-09-07T11:01:37.860Z,101299.00
2022-09-07T11:04:34.955Z,101297.97
2022-09-07T11:07:16.171Z,101289.72
2022-09-07T11:09:57.898Z,101285.84
2022-09-07T11:12:37.665Z,101284.91
2022-09-07T11:15:26.316Z,101284.94
2022-09-07T11:18:03.513Z,101284.81
2022-09-07T11:20:42.567Z,101277.03
2022-09-07T11:23:31.204Z,101273.28
2022-09-07T11:26:14.399Z,101268.22
2022-09-07T11:29:35.980Z,101264.34
2022-09-07T11:32:25.189Z,101264.59
2022-09-07T11:34:57.604Z,101261.28
2022-09-07T11:37:51.096Z,101255.50
2022-09-07T11:40:27.148Z,101261.00
2022-09-07T11:43:00.749Z,101262.31
2022-09-07T11:45:44.320Z,101254.97
2022-09-07T11:48:21.455Z,101251.44
2022-09-07T11:50:53.927Z,101249.53
2022-09-07T11:53:31.597Z,101230.50
2022-09-07T11:56:07.452Z,101242.97
2022-09-07T11:59:15.665Z,101236.97
2022-09-07T12:01:50.615Z,101235.00
2022-09-07T12:04:39.999Z,101229.28
2022-09-07T12:07:45.756Z,101230.56
2022-09-07T12:10:31.236Z,101219.47
2022-09-07T12:13:16.788Z,101221.13
2022-09-07T12:16:28.606Z,101216.66
2022-09-07T12:19:04.540Z,101207.31
2022-09-07T12:21:40.583Z,101194.50
2022-09-07T12:24:45.863Z,101205.38
2022-09-07T12:27:21.944Z,101208.97
2022-09-07T12:29:52.662Z,101201.22
2022-09-07T12:32:54.230Z,101204.81
2022-09-07T12:35:31.158Z,101203.34
2022-09-07T12:38:02.786Z,101205.84
2022-09-07T12:40:35.663Z,101202.06
2022-09-07T12:43:14.826Z,101204.00
2022-09-07T12:45:42.283Z,101205.88
2022-09-07T12:49:16.778Z,101200.66
2022-09-07T13:00:10.724Z,101193.81
2022-09-07T13:07:01.636Z,101206.84
2022-09-07T13:09:16.549Z,101200.94
2022-09-07T13:11:43.970Z,101198.44
2022-09-07T13:14:14.120Z,101185.84
2022-09-07T13:19:46.989Z,101198.44
2022-09-07T13:22:29.236Z,101204.31
2022-09-07T13:24:59.669Z,101184.81
2022-09-07T13:27:26.984Z,101190.50
2022-09-07T13:30:22.466Z,101179.78
2022-09-07T13:33:08.360Z,101181.88
2022-09-07T13:35:36.505Z,101179.56
2022-09-07T13:38:04.794Z,101175.38
2022-09-07T13:40:40.095Z,101174.50
2022-09-07T13:43:16.463Z,101162.97
2022-09-07T13:45:55.702Z,101167.78
2022-09-07T13:48:51.434Z,101163.53
2022-09-07T13:51:43.179Z,101153.88
2022-09-07T13:54:44.037Z,101155.78
2022-09-07T13:57:28.335Z,101146.97
2022-09-07T13:59:56.964Z,101135.63
2022-09-07T14:02:28.589Z,101138.44
2022-09-07T14:05:00.373Z,101134.44
2022-09-07T14:07:30.366Z,101131.50
2022-09-07T14:10:25.406Z,101124.94
2022-09-07T14:13:12.374Z,101129.53
2022-09-07T14:15:45.749Z,101124.47
2022-09-07T14:18:15.327Z,101109.75
2022-09-07T14:20:53.696Z,101102.81
2022-09-07T14:23:29.753Z,101104.25
2022-09-07T14:26:22.025Z,101105.47
2022-09-07T14:28:51.689Z,101094.47
2022-09-07T14:31:20.863Z,101097.63
2022-09-07T14:33:53.903Z,101096.06
2022-09-07T14:36:48.252Z,101103.47
2022-09-07T14:39:19.452Z,101107.75
2022-09-07T14:41:47.267Z,101107.78
2022-09-07T14:44:36.766Z,101109.22
2022-09-07T14:47:20.455Z,101110.50
2022-09-07T14:49:52.738Z,101103.22
2022-09-07T14:55:47.030Z,101104.19
2022-09-07T14:58:14.169Z,101098.25
2022-09-07T15:00:46.838Z,101096.06
2022-09-07T15:03:27.293Z,101096.50
2022-09-07T15:06:00.798Z,101103.00
2022-09-07T15:08:45.540Z,101095.72
2022-09-07T15:11:39.509Z,101084.34
2022-09-07T15:14:11.904Z,101072.41
2022-09-07T15:16:42.529Z,101076.78
2022-09-07T15:19:15.768Z,101075.16
2022-09-07T15:21:43.962Z,101064.00
2022-09-07T15:24:11.823Z,101075.22
2022-09-07T15:27:02.984Z,101074.44
2022-09-07T15:29:31.096Z,101074.03
2022-09-07T15:32:03.937Z,101068.19
2022-09-07T15:34:33.241Z,101057.25
2022-09-07T15:37:02.670Z,101054.22
2022-09-07T15:39:31.282Z,101050.56
2022-09-07T15:42:00.587Z,101052.47
2022-09-07T15:44:46.065Z,101052.69
2022-09-07T15:50:00.557Z,101055.09
2022-09-07T15:52:28.157Z,101061.19
2022-09-07T15:54:59.284Z,101059.91
2022-09-07T16:00:14.509Z,101063.72
2022-09-07T16:05:31.421Z,101058.50
2022-09-07T16:10:55.993Z,101062.09
2022-09-07T16:13:31.868Z,101062.34
2022-09-07T16:15:59.872Z,101056.69
2022-09-07T16:18:31.259Z,101061.06
2022-09-07T16:21:04.891Z,101055.63
2022-09-07T16:23:32.215Z,101059.41
2022-09-07T16:26:02.239Z,101059.38
2022-09-07T16:28:30.665Z,101057.06
2022-09-07T16:30:58.804Z,101049.53
2022-09-07T16:33:33.055Z,101056.88
2022-09-07T16:36:12.007Z,101063.78
2022-09-07T16:38:44.439Z,101070.88
2022-09-07T16:41:14.757Z,101061.88
2022-09-07T16:43:42.392Z,101057.66
2022-09-07T16:46:14.347Z,101047.38
2022-09-07T16:48:41.840Z,101052.34
2022-09-07T16:51:12.072Z,101054.88
2022-09-07T16:53:39.734Z,101060.31
2022-09-07T16:56:10.222Z,101058.19
2022-09-07T16:58:42.803Z,101045.00
2022-09-07T17:01:13.593Z,101052.28
2022-09-07T17:03:41.073Z,101047.66
2022-09-07T17:06:11.045Z,101044.31
2022-09-07T17:08:39.475Z,101049.34
2022-09-07T17:11:10.087Z,101051.63
2022-09-07T17:13:38.724Z,101050.34
2022-09-07T17:16:12.325Z,101042.78
2022-09-07T17:21:36.685Z,101030.78
2022-09-07T17:24:05.502Z,101049.19
2022-09-07T17:26:33.183Z,101044.13
2022-09-07T17:29:01.285Z,101026.56
2022-09-07T17:34:21.252Z,101040.53
2022-09-07T17:36:48.814Z,101045.97
2022-09-07T17:39:18.117Z,101039.50
2022-09-07T17:41:52.557Z,101034.06
2022-09-07T17:44:21.607Z,101030.28
2022-09-07T17:46:48.923Z,101049.91
2022-09-07T17:49:16.832Z,101066.19
2022-09-07T17:51:45.278Z,101056.13
2022-09-07T17:54:17.345Z,101060.03
2022-09-07T17:56:45.266Z,101058.25
2022-09-07T18:02:00.962Z,101053.31
2022-09-07T18:04:28.882Z,101068.38
2022-09-07T18:06:56.275Z,101073.28
2022-09-07T18:09:23.463Z,101090.00
2022-09-07T18:11:51.065Z,101116.97
2022-09-07T18:14:19.160Z,101121.38
2022-09-07T18:16:49.670Z,101135.16
2022-09-07T18:19:18.653Z,101144.69
2022-09-07T18:21:47.761Z,101155.59
2022-09-07T18:24:19.304Z,101163.03
2022-09-07T18:26:52.265Z,101145.78
2022-09-07T18:29:31.359Z,101142.94
2022-09-07T18:32:01.211Z,101134.41
2022-09-07T18:34:28.989Z,101137.91
2022-09-07T18:36:58.193Z,101140.00
2022-09-07T18:39:26.361Z,101143.03
2022-09-07T18:41:54.298Z,101133.75
2022-09-07T18:47:08.972Z,101108.75
2022-09-07T18:49:36.143Z,101102.56
2022-09-07T18:54:51.254Z,101103.59
2022-09-07T18:57:18.931Z,101104.59
2022-09-07T18:59:46.324Z,101108.63
2022-09-07T19:02:14.254Z,101103.06
2022-09-07T19:07:30.091Z,101111.31
2022-09-07T19:09:58.129Z,101120.81
2022-09-07T19:12:25.310Z,101131.34
2022-09-07T19:14:52.514Z,101135.56
2022-09-07T19:17:19.797Z,101136.03
2022-09-07T19:19:48.333Z,101130.72
2022-09-07T19:22:15.569Z,101125.63
2022-09-07T19:24:42.772Z,101127.00
2022-09-07T19:27:09.943Z,101128.69
2022-09-07T19:29:37.132Z,101128.53
2022-09-07T19:32:04.493Z,101130.31
2022-09-07T19:34:42.554Z,101126.00
2022-09-07T19:37:11.774Z,101128.88
2022-09-07T19:39:39.731Z,101134.69
2022-09-07T19:42:07.355Z,101138.09
2022-09-07T19:44:35.067Z,101135.03
2022-09-07T19:47:02.343Z,101139.25
2022-09-07T19:49:30.452Z,101136.06
2022-09-07T19:51:57.772Z,101128.69
2022-09-07T19:54:25.272Z,101132.06
2022-09-07T19:56:52.463Z,101127.75
2022-09-07T19:59:20.146Z,101127.38
2022-09-07T20:01:49.401Z,101113.34
2022-09-07T20:04:20.539Z,101111.75
2022-09-07T20:06:50.159Z,101115.81
2022-09-07T20:09:18.630Z,101117.97
2022-09-07T20:11:47.542Z,101111.44
2022-09-07T20:14:16.143Z,101118.44
2022-09-07T20:16:43.758Z,101120.69
2022-09-07T20:19:14.352Z,101121.31
2022-09-07T20:21:42.613Z,101107.84
2022-09-07T20:24:14.427Z,101108.06
2022-09-07T20:26:41.729Z,101102.66
2022-09-07T20:32:00.953Z,101111.81
2022-09-07T20:34:28.965Z,101101.84
2022-09-07T20:36:56.983Z,101100.16
2022-09-07T20:39:24.637Z,101091.88
2022-09-07T20:41:51.882Z,101096.50
2022-09-07T20:44:19.264Z,101098.97
2022-09-07T20:46:46.656Z,101086.28
2022-09-07T20:49:13.953Z,101094.28
2022-09-07T20:51:41.283Z,101094.34
2022-09-07T20:54:08.523Z,101090.13
2022-09-07T20:56:35.936Z,101086.88
2022-09-07T20:59:03.963Z,101082.19
2022-09-07T21:01:32.584Z,101076.59
2022-09-07T21:04:01.136Z,101075.09
2022-09-07T21:06:29.477Z,101074.00
2022-09-07T21:08:57.324Z,101077.94
2022-09-07T21:11:27.574Z,101078.44
2022-09-07T21:14:00.125Z,101079.31
2022-09-07T21:16:28.391Z,101078.59
2022-09-07T21:18:57.975Z,101072.78
2022-09-07T21:21:27.295Z,101082.34
2022-09-07T21:23:56.765Z,101081.28
2022-09-07T21:26:24.920Z,101073.75
2022-09-07T21:29:00.156Z,101067.56
2022-09-07T21:31:29.219Z,101063.88
2022-09-07T21:33:58.871Z,101062.28
2022-09-07T21:36:26.941Z,101060.75
2022-09-07T21:38:54.962Z,101061.16
2022-09-07T21:41:24.386Z,101060.97
2022-09-07T21:43:59.003Z,101057.00
2022-09-07T21:46:28.201Z,101065.84
2022-09-07T21:48:56.455Z,101052.34
2022-09-07T21:51:24.433Z,101053.75
2022-09-07T21:53:55.935Z,101056.91
2022-09-07T21:56:23.571Z,101061.03
2022-09-07T21:58:55.465Z,101057.06
2022-09-07T22:01:24.037Z,101050.28
2022-09-07T22:04:06.859Z,101039.75
2022-09-07T22:06:37.719Z,101037.31
2022-09-07T22:09:05.203Z,101045.09
2022-09-07T22:11:32.481Z,101033.22
2022-09-07T22:16:31.259Z,101035.28
2022-09-07T22:18:58.971Z,101031.56
2022-09-07T22:21:27.951Z,101026.78
2022-09-07T22:24:03.005Z,101031.09
2022-09-07T22:26:37.558Z,101034.19
2022-09-07T22:29:06.850Z,101028.91
2022-09-07T22:31:36.423Z,101023.50
2022-09-07T22:34:07.967Z,101023.13
2022-09-07T22:36:44.557Z,101012.84
2022-09-07T22:39:15.139Z,100999.97
2022-09-07T22:41:43.776Z,100998.63
2022-09-07T22:44:15.960Z,100996.34
2022-09-07T22:46:44.948Z,101000.25
2022-09-07T22:49:14.597Z,101006.59
2022-09-07T22:51:42.260Z,101021.63
2022-09-07T22:54:09.617Z,101017.06
2022-09-07T22:56:37.236Z,101016.66
2022-09-07T22:59:07.525Z,101017.81
2022-09-07T23:01:36.092Z,101002.22
2022-09-07T23:04:04.270Z,100997.03
2022-09-07T23:06:37.478Z,101004.78
2022-09-07T23:09:06.803Z,101000.63
2022-09-07T23:11:34.152Z,101000.22
2022-09-07T23:14:05.947Z,100996.72
2022-09-07T23:16:33.295Z,100996.03
2022-09-07T23:19:00.866Z,100986.63
2022-09-07T23:21:28.068Z,100987.72
2022-09-07T23:23:58.252Z,100983.72
2022-09-07T23:26:28.763Z,100987.28
2022-09-07T23:29:00.227Z,100981.63
2022-09-07T23:31:29.012Z,100978.13
2022-09-07T23:33:57.437Z,100986.13
2022-09-07T23:36:25.333Z,100975.97
2022-09-07T23:38:55.366Z,100984.38
2022-09-07T23:41:24.212Z,100984.91
2022-09-07T23:43:52.487Z,100981.97
2022-09-07T23:46:19.951Z,100976.25
2022-09-07T23:48:48.539Z,100976.13
2022-09-07T23:51:21.227Z,100978.47
2022-09-07T23:53:51.241Z,100967.91
2022-09-07T23:56:18.391Z,100956.69
2022-09-07T23:58:45.596Z,100950.06
